Terminal Aerodrome Forecast
Issued by NWS

Home | Current Version | Previous Version | Text Only | Print | Product List | Glossary On
Versions: 1 2 3 4 5 6 7 8 9 10 11 12 13 14 15 16 17 18 19 20 21 22 23 24 25 26 27 28 29 30 31
000
FTUS41 KOKX 212300
TAFGON
TAF
KGON 212332Z 2200/2224 VRB03KT P6SM SCT035 BKN250
     FM220400 03007KT 6SM -SHRA BR BKN010
     FM221000 02010KT 6SM BR VCSH BKN015
     FM221400 02013G21KT 6SM BR VCSH BKN015
     FM222200 01015G23KT 5SM -RA BR BKN010=

USA.gov is the U.S. government's official web portal to all federal, state and local government web resources and services.